M I D A S
Marine Information and Data Acquisition System
Tripno 1934 of the Zeeleeuw from 2010-08-10 06:22:44 to 2010-08-10 14:52:31
Back to CruiseResearch ActivitiesStationsMapUnderway DataData graphs

EquipmentUnitsComments
TimeDGPSUTC
LatitudeDGPSDM.mWGS84
LongitudeDGPSDM.mWGS84
SpeedMeteo Stationm/sRelative wind speed
DirectionMeteo StationdegRelative wind direction
TemperatureMeteo Stationdeg CelciusAir temperature
PressureMeteo StationPaAtmospheric pressure
HumidityMeteo Station%Relative humidity
Missing or incorrect values are displayed as -999
Metereological data collected by the RV Zeeleeuw from 2010-08-10 06:19:19 to 2010-08-10 14:59:33
                                                                                    Next 1000 lines
Time Latitude Longitude Speed Direction Temperature Pressure Humidity
2010-08-10 06:19:29 51°13.662 2°55.959 2.2 357 16.4 101290 43
2010-08-10 06:19:33 51°13.662 2°55.957 3 4 16.4 101290 43
2010-08-10 06:19:38 51°13.663 2°55.953 2.8 6 16.4 101300 44
2010-08-10 06:19:43 51°13.665 2°55.949 2.1 6 16.4 101300 44
2010-08-10 06:19:49 51°13.666 2°55.942 2.4 21 16.4 101300 43
2010-08-10 06:19:54 51°13.668 2°55.937 1.5 16 16.4 101300 43
2010-08-10 06:20:00 51°13.67 2°55.929 1.8 27 16.4 101300 43
2010-08-10 06:20:05 51°13.673 2°55.923 2 18 16.4 101300 43
2010-08-10 06:20:10 51°13.675 2°55.915 2.1 27 16.4 101300 44
2010-08-10 06:20:15 51°13.678 2°55.907 0.9 34 16.4 101300 44
2010-08-10 06:20:20 51°13.681 2°55.899 1.5 24 16.4 101300 45
2010-08-10 06:20:25 51°13.684 2°55.891 2.7 33 16.4 101300 45
2010-08-10 06:20:29 51°13.686 2°55.884 2.3 40 16.5 101300 44
2010-08-10 06:20:35 51°13.688 2°55.875 2.5 37 16.5 101300 44
2010-08-10 06:20:39 51°13.69 2°55.868 2.9 40 16.5 101290 44
2010-08-10 06:20:45 51°13.691 2°55.858 4.4 26 16.5 101290 44
2010-08-10 06:20:50 51°13.693 2°55.849 4 26 16.5 101290 44
2010-08-10 06:20:55 51°13.694 2°55.84 3.9 26 16.5 101290 44
2010-08-10 06:21:00 51°13.695 2°55.832 2.8 33 16.5 101300 44
2010-08-10 06:21:05 51°13.695 2°55.823 2.1 33 16.5 101300 44
2010-08-10 06:21:10 51°13.696 2°55.814 2.1 28 16.5 101290 44
2010-08-10 06:21:15 51°13.696 2°55.806 2.7 30 16.5 101290 44
2010-08-10 06:21:20 51°13.696 2°55.797 3 30 16.5 101290 43
2010-08-10 06:21:25 51°13.696 2°55.788 2.3 44 16.5 101290 43
2010-08-10 06:21:30 51°13.697 2°55.78 2.8 35 16.5 101290 45
2010-08-10 06:21:35 51°13.696 2°55.771 3 35 16.5 101290 45
2010-08-10 06:21:40 51°13.696 2°55.763 2.9 40 16.5 101290 42
2010-08-10 06:21:45 51°13.696 2°55.756 4.8 35 16.5 101290 42
2010-08-10 06:21:50 51°13.696 2°55.749 2.8 34 16.5 101290 45
2010-08-10 06:21:55 51°13.696 2°55.746 3.8 38 16.5 101290 45
2010-08-10 06:22:00 51°13.697 2°55.745 4.4 36 16.5 101290 45
2010-08-10 06:22:05 51°13.697 2°55.744 4.9 56 16.5 101290 45
2010-08-10 06:22:10 51°13.698 2°55.745 5.5 43 16.5 101290 44
2010-08-10 06:22:14 51°13.698 2°55.745 2.8 52 16.5 101290 44
2010-08-10 06:22:19 51°13.699 2°55.746 2.8 38 16.5 101290 44
2010-08-10 06:22:24 51°13.7 2°55.747 3.7 41 16.5 101290 44
2010-08-10 06:22:30 51°13.7 2°55.746 3.8 42 16.5 101290 44
2010-08-10 06:22:34 51°13.7 2°55.746 3.1 43 16.5 101290 44
2010-08-10 06:22:39 51°13.699 2°55.744 3.3 27 16.5 101290 45
2010-08-10 06:22:44 51°13.698 2°55.742 2.4 53 16.5 101290 45
2010-08-10 06:22:48 51°13.697 2°55.741 1.5 28 16.5 101290 43
2010-08-10 06:22:54 51°13.695 2°55.739 2.5 52 16.5 101290 43
2010-08-10 06:22:58 51°13.694 2°55.737 3.7 22 16.5 101290 45
2010-08-10 06:23:03 51°13.693 2°55.736 2.5 53 16.5 101290 45
2010-08-10 06:23:09 51°13.691 2°55.734 3.2 30 16.5 101290 44
2010-08-10 06:23:15 51°13.691 2°55.733 2.2 59 16.5 101290 44
2010-08-10 06:23:20 51°13.691 2°55.733 1.6 20 16.5 101290 44
2010-08-10 06:23:25 51°13.691 2°55.733 3.1 53 16.5 101290 44
2010-08-10 06:23:30 51°13.692 2°55.733 2.9 24 16.5 101290 45
2010-08-10 06:23:35 51°13.694 2°55.734 2.8 58 16.5 101290 45
2010-08-10 06:23:40 51°13.696 2°55.734 1.5 24 16.5 101290 44
2010-08-10 06:23:45 51°13.698 2°55.734 1.9 52 16.5 101290 44
2010-08-10 06:23:50 51°13.701 2°55.733 2.8 22 16.5 101290 45
2010-08-10 06:23:55 51°13.704 2°55.732 2.5 312 16.5 101290 45
2010-08-10 06:24:00 51°13.707 2°55.731 1.8 259 16.5 101290 45
2010-08-10 06:24:05 51°13.711 2°55.728 1.4 64 16.5 101290 45
2010-08-10 06:24:10 51°13.716 2°55.725 1.6 265 16.5 101290 44
2010-08-10 06:24:14 51°13.721 2°55.722 3.3 306 16.5 101290 44
2010-08-10 06:24:19 51°13.728 2°55.717 3.5 253 16.5 101290 44
2010-08-10 06:24:24 51°13.735 2°55.711 2.5 306 16.5 101290 44
2010-08-10 06:24:30 51°13.745 2°55.704 2.5 23 16.6 101290 44
2010-08-10 06:24:35 51°13.754 2°55.696 3.1 307 16.6 101290 44
2010-08-10 06:24:39 51°13.762 2°55.69 2.9 258 16.5 101290 44
2010-08-10 06:24:44 51°13.772 2°55.682 3.8 305 16.5 101290 44
2010-08-10 06:24:49 51°13.783 2°55.674 3 21 16.5 101290 43
2010-08-10 06:24:54 51°13.794 2°55.665 3.1 302 16.5 101290 43
2010-08-10 06:24:59 51°13.805 2°55.656 2.8 23 16.6 101290 44
2010-08-10 06:25:03 51°13.814 2°55.649 2.1 308 16.6 101290 44
2010-08-10 06:25:08 51°13.826 2°55.639 2.1 263 16.5 101300 44
2010-08-10 06:25:14 51°13.841 2°55.629 0.4 309 16.5 101300 44
2010-08-10 06:25:19 51°13.853 2°55.619 0.5 23 16.6 101300 43
2010-08-10 06:25:23 51°13.863 2°55.612 1.1 307 16.6 101300 43
2010-08-10 06:25:28 51°13.876 2°55.602 3.4 316 16.6 101290 43
2010-08-10 06:25:33 51°13.889 2°55.593 2 303 16.6 101290 43
2010-08-10 06:25:38 51°13.902 2°55.584 2.3 318 16.6 101290 44
2010-08-10 06:25:43 51°13.915 2°55.575 2.8 307 16.6 101290 44
2010-08-10 06:25:47 51°13.925 2°55.568 2.3 317 16.6 101290 43
2010-08-10 06:25:52 51°13.939 2°55.559 2.6 324 16.6 101290 43
2010-08-10 06:25:57 51°13.953 2°55.551 2.5 322 16.6 101290 45
2010-08-10 06:26:02 51°13.966 2°55.542 3 309 16.6 101290 45
2010-08-10 06:26:07 51°13.98 2°55.534 3.5 20 16.6 101290 44
2010-08-10 06:26:11 51°13.991 2°55.526 3.6 301 16.6 101290 44
2010-08-10 06:26:16 51°14.004 2°55.517 3.5 21 16.6 101290 43
2010-08-10 06:26:21 51°14.018 2°55.507 2.9 308 16.6 101290 43
2010-08-10 06:26:27 51°14.034 2°55.497 3 248 16.6 101290 45
2010-08-10 06:26:31 51°14.045 2°55.489 2.4 301 16.6 101290 45
2010-08-10 06:26:36 51°14.059 2°55.479 2.3 29 16.6 101300 45
2010-08-10 06:26:41 51°14.073 2°55.47 1.5 304 16.6 101300 45
2010-08-10 06:26:46 51°14.087 2°55.46 1 26 16.6 101290 43
2010-08-10 06:26:51 51°14.101 2°55.449 0.9 307 16.6 101290 43
2010-08-10 06:26:55 51°14.112 2°55.44 2.1 30 16.6 101300 42
2010-08-10 06:27:01 51°14.129 2°55.426 2 306 16.6 101300 42
2010-08-10 06:27:06 51°14.143 2°55.415 2.3 316 16.6 101290 43
2010-08-10 06:27:11 51°14.156 2°55.403 1.8 303 16.6 101290 43
2010-08-10 06:28:01 51°14.292 2°55.282 2.6 306 -999 -999 -999
2010-08-10 06:28:22 51°14.348 2°55.228 2.9 305 16.6 101290 44
2010-08-10 06:28:48 51°14.416 2°55.159 3.6 21 16.6 101280 44
2010-08-10 06:29:00 51°14.448 2°55.128 3.1 284 16.6 101290 44
2010-08-10 06:29:04 51°14.458 2°55.117 2.7 23 16.6 101290 43
2010-08-10 06:29:24 51°14.511 2°55.062 4.4 241 16.6 101280 45
2010-08-10 06:30:47 51°14.624 2°54.666 8.6 20 16.8 101270 45
2010-08-10 06:30:52 51°14.622 2°54.638 9.9 304 16.8 101270 45
2010-08-10 06:30:57 51°14.619 2°54.61 9.9 21 16.8 101270 44
2010-08-10 06:31:02 51°14.614 2°54.583 10.9 307 16.8 101270 44
2010-08-10 06:31:07 51°14.608 2°54.556 10.1 316 16.8 101250 44
2010-08-10 06:31:12 51°14.6 2°54.53 9.6 318 16.8 101250 44
2010-08-10 06:31:17 51°14.592 2°54.504 10.2 25 16.8 101260 45
2010-08-10 06:31:22 51°14.583 2°54.479 10.8 301 16.8 101260 45
2010-08-10 06:31:26 51°14.576 2°54.458 9.8 320 16.8 101230 44
2010-08-10 06:31:32 51°14.564 2°54.428 10.4 304 16.8 101230 44
2010-08-10 06:31:36 51°14.556 2°54.407 10.6 319 16.8 101230 45
2010-08-10 06:31:42 51°14.545 2°54.376 12.4 309 16.8 101230 45
2010-08-10 06:31:48 51°14.533 2°54.344 10.7 320 16.8 101230 45
2010-08-10 06:31:53 51°14.524 2°54.317 10.2 306 16.8 101230 45
2010-08-10 06:31:57 51°14.516 2°54.296 10.7 318 16.8 101230 44
2010-08-10 06:32:02 51°14.507 2°54.269 10.2 305 16.8 101230 44
2010-08-10 06:32:07 51°14.497 2°54.242 11.3 319 16.8 101230 44
2010-08-10 06:32:12 51°14.488 2°54.215 11.2 304 16.8 101230 44
2010-08-10 06:32:17 51°14.478 2°54.189 12 316 16.8 101230 43
2010-08-10 06:32:22 51°14.468 2°54.162 11.8 303 16.8 101230 43
2010-08-10 06:32:27 51°14.458 2°54.135 10.9 316 16.7 101230 44
2010-08-10 06:32:32 51°14.449 2°54.108 12.5 305 16.7 101230 44
2010-08-10 06:32:37 51°14.439 2°54.082 11 322 16.7 101210 44
2010-08-10 06:32:43 51°14.427 2°54.049 11.9 304 16.7 101210 44
2010-08-10 06:32:48 51°14.417 2°54.023 11.5 317 16.7 101200 44
2010-08-10 06:32:53 51°14.407 2°53.996 11.2 301 16.7 101200 44
2010-08-10 06:32:57 51°14.399 2°53.974 11.2 22 16.7 101230 45
2010-08-10 06:33:01 51°14.391 2°53.952 12.9 305 16.7 101230 45
2010-08-10 06:33:07 51°14.379 2°53.92 11.4 318 16.7 101230 45
2010-08-10 06:33:13 51°14.368 2°53.887 9.8 319 16.7 101230 45
2010-08-10 06:33:17 51°14.36 2°53.866 11.5 318 16.7 101210 44
2010-08-10 06:33:22 51°14.35 2°53.839 11 303 16.7 101210 44
2010-08-10 06:33:27 51°14.34 2°53.812 10.6 319 16.7 101210 44
2010-08-10 06:33:33 51°14.328 2°53.779 11.7 305 16.7 101210 44
2010-08-10 06:33:37 51°14.32 2°53.757 11.8 319 16.7 101230 44
2010-08-10 06:33:42 51°14.31 2°53.73 12.7 301 16.7 101230 44
2010-08-10 06:33:47 51°14.3 2°53.703 10.8 319 16.7 101230 45
2010-08-10 06:33:52 51°14.29 2°53.675 11.5 308 16.7 101230 45
2010-08-10 06:33:57 51°14.28 2°53.648 10.9 317 16.6 101220 44
2010-08-10 06:34:02 51°14.269 2°53.621 11.7 308 16.6 101220 44
2010-08-10 06:34:07 51°14.259 2°53.593 12 317 16.6 101220 44
2010-08-10 06:34:12 51°14.249 2°53.566 11.7 305 16.6 101220 44
2010-08-10 06:34:17 51°14.239 2°53.538 11.1 319 16.6 101230 45
2010-08-10 06:34:21 51°14.231 2°53.516 11.4 318 16.6 101230 45
2010-08-10 06:34:27 51°14.219 2°53.483 11.8 317 16.6 101230 45
2010-08-10 06:34:32 51°14.208 2°53.456 12.8 308 16.6 101230 45
2010-08-10 06:34:37 51°14.198 2°53.428 11.1 320 16.6 101230 44
2010-08-10 06:34:42 51°14.188 2°53.401 10.5 321 16.6 101230 44
2010-08-10 06:34:47 51°14.177 2°53.373 11.4 319 16.6 101240 45
2010-08-10 06:34:53 51°14.164 2°53.341 11.6 302 16.6 101240 45
2010-08-10 06:34:57 51°14.156 2°53.319 13 320 16.6 101240 43
2010-08-10 06:35:02 51°14.145 2°53.292 11.5 301 16.6 101240 43
2010-08-10 06:35:07 51°14.135 2°53.264 11 318 16.6 101220 44
2010-08-10 06:35:12 51°14.124 2°53.237 12 306 16.6 101220 44
2010-08-10 06:35:17 51°14.114 2°53.209 11.6 317 16.6 101230 44
2010-08-10 06:35:22 51°14.104 2°53.182 11.6 303 16.6 101230 44
2010-08-10 06:35:27 51°14.094 2°53.154 11.6 316 16.5 101230 45
2010-08-10 06:35:32 51°14.083 2°53.126 11.7 317 16.5 101230 45
2010-08-10 06:35:37 51°14.073 2°53.099 11 316 16.5 101230 44
2010-08-10 06:35:42 51°14.062 2°53.071 11.2 301 16.5 101230 44
2010-08-10 06:35:47 51°14.052 2°53.043 11.6 22 16.5 101220 45
2010-08-10 06:35:52 51°14.041 2°53.016 10.5 303 16.5 101220 45
2010-08-10 06:35:57 51°14.031 2°52.988 10.9 317 16.5 101220 45
2010-08-10 06:36:01 51°14.022 2°52.966 10.8 308 16.5 101220 45
2010-08-10 06:36:07 51°14.01 2°52.933 11.3 23 16.5 101230 45
2010-08-10 06:36:12 51°14 2°52.905 10.7 303 16.5 101230 45
2010-08-10 06:36:17 51°13.989 2°52.878 10.6 318 16.5 101220 45
2010-08-10 06:36:22 51°13.979 2°52.85 11.5 305 16.5 101220 45
2010-08-10 06:36:27 51°13.968 2°52.822 10.8 317 16.5 101230 44
2010-08-10 06:36:32 51°13.958 2°52.795 12.6 282 16.5 101230 44
2010-08-10 06:36:37 51°13.947 2°52.767 12 315 16.4 101220 45
2010-08-10 06:36:41 51°13.939 2°52.745 12.2 315 16.4 101220 45
2010-08-10 06:36:47 51°13.926 2°52.712 11.2 22 16.4 101230 45
2010-08-10 06:36:52 51°13.916 2°52.684 11.7 303 16.4 101230 45
2010-08-10 06:36:57 51°13.905 2°52.656 10.7 317 16.5 101230 45
2010-08-10 06:37:02 51°13.895 2°52.629 10.6 302 16.5 101230 45
2010-08-10 06:37:07 51°13.884 2°52.601 11.2 318 16.4 101220 45
2010-08-10 06:37:12 51°13.874 2°52.574 11.5 303 16.4 101220 45
2010-08-10 06:37:17 51°13.864 2°52.546 10.9 317 16.4 101230 44
2010-08-10 06:37:21 51°13.855 2°52.524 10.8 305 16.4 101230 44
2010-08-10 06:37:27 51°13.843 2°52.491 10.7 316 16.4 101230 45
2010-08-10 06:37:32 51°13.832 2°52.463 10.3 39 16.4 101230 45
2010-08-10 06:37:37 51°13.822 2°52.436 11 316 16.4 101220 43
2010-08-10 06:37:42 51°13.811 2°52.408 10.6 302 16.4 101220 43
2010-08-10 06:37:47 51°13.8 2°52.38 11.4 317 16.4 101220 45
2010-08-10 06:37:53 51°13.788 2°52.347 11.5 307 16.4 101220 45
2010-08-10 06:37:57 51°13.779 2°52.325 10 318 16.4 101230 45
2010-08-10 06:38:02 51°13.769 2°52.297 11.6 306 16.4 101230 45
2010-08-10 06:38:07 51°13.758 2°52.27 11.3 317 16.4 101240 45
2010-08-10 06:38:13 51°13.745 2°52.237 11 301 16.4 101240 45
2010-08-10 06:38:17 51°13.737 2°52.215 10 317 16.4 101220 45
2010-08-10 06:38:22 51°13.726 2°52.187 11.9 318 16.4 101220 45
2010-08-10 06:38:27 51°13.716 2°52.16 10.3 319 16.4 101230 45
2010-08-10 06:38:32 51°13.705 2°52.132 11.3 282 16.4 101230 45
2010-08-10 06:38:37 51°13.694 2°52.104 12.6 318 16.4 101230 45
2010-08-10 06:38:42 51°13.684 2°52.077 11.6 303 16.4 101230 45
2010-08-10 06:38:47 51°13.673 2°52.049 11.1 316 16.4 101220 45
2010-08-10 06:38:52 51°13.663 2°52.021 10.8 301 16.4 101220 45
2010-08-10 06:38:57 51°13.652 2°51.994 11.6 316 16.4 101230 45
2010-08-10 06:39:01 51°13.644 2°51.972 10.2 318 16.4 101230 45
2010-08-10 06:39:07 51°13.631 2°51.939 10 319 16.4 101220 45
2010-08-10 06:39:12 51°13.62 2°51.911 9.8 303 16.4 101220 45
2010-08-10 06:39:17 51°13.609 2°51.883 10.3 316 16.3 101220 45
2010-08-10 06:39:22 51°13.599 2°51.855 10.3 306 16.3 101220 45
2010-08-10 06:39:27 51°13.588 2°51.828 10.9 318 16.3 101230 45
2010-08-10 06:39:33 51°13.576 2°51.794 10.1 283 16.3 101230 45
2010-08-10 06:39:37 51°13.567 2°51.772 10 23 16.4 101240 45
2010-08-10 06:39:42 51°13.557 2°51.744 10.8 305 16.4 101240 45
2010-08-10 06:39:47 51°13.546 2°51.716 11.1 22 16.4 101230 45
2010-08-10 06:39:52 51°13.536 2°51.688 11.8 303 16.4 101230 45
2010-08-10 06:39:57 51°13.525 2°51.66 10.8 317 16.4 101240 45
2010-08-10 06:40:02 51°13.515 2°51.633 11.5 302 16.4 101240 45
2010-08-10 06:40:07 51°13.504 2°51.605 11 318 16.4 101230 46
2010-08-10 06:40:12 51°13.494 2°51.577 10.8 32 16.4 101230 46
2010-08-10 06:40:17 51°13.483 2°51.549 11.2 21 16.4 101230 44
2010-08-10 06:40:22 51°13.473 2°51.521 10.6 306 16.4 101230 44
2010-08-10 06:40:27 51°13.462 2°51.493 11.4 316 16.4 101220 45
2010-08-10 06:40:32 51°13.452 2°51.465 11.8 282 16.4 101220 45
2010-08-10 06:40:37 51°13.441 2°51.437 11 317 16.3 101220 45
2010-08-10 06:40:41 51°13.433 2°51.415 11.6 308 16.3 101220 45
2010-08-10 06:40:47 51°13.421 2°51.381 10.9 317 16.3 101230 45
2010-08-10 06:40:52 51°13.41 2°51.353 10.8 306 16.3 101230 45
2010-08-10 06:40:57 51°13.4 2°51.325 11.8 315 16.3 101230 45
2010-08-10 06:41:02 51°13.39 2°51.297 10.8 305 16.3 101230 45
2010-08-10 06:41:07 51°13.379 2°51.269 11.4 318 16.3 101240 45
2010-08-10 06:41:12 51°13.369 2°51.241 11.2 306 16.3 101240 45
2010-08-10 06:41:17 51°13.358 2°51.213 11 316 16.4 101240 46
2010-08-10 06:41:21 51°13.35 2°51.191 11.4 321 16.4 101240 46
2010-08-10 06:41:27 51°13.338 2°51.158 10.4 321 16.4 101230 45
2010-08-10 06:41:32 51°13.327 2°51.13 10.9 280 16.4 101230 45
2010-08-10 06:41:37 51°13.316 2°51.102 10.7 319 16.4 101240 45
2010-08-10 06:41:42 51°13.306 2°51.074 10.4 36 16.4 101240 45
2010-08-10 06:41:47 51°13.295 2°51.046 10 317 16.4 101240 46
2010-08-10 06:41:53 51°13.283 2°51.013 11.4 306 16.4 101240 46
2010-08-10 06:41:57 51°13.275 2°50.991 11 316 16.4 101240 45
2010-08-10 06:42:02 51°13.264 2°50.962 11.5 302 16.4 101240 45
2010-08-10 06:42:07 51°13.254 2°50.934 12 27 16.4 101230 45
2010-08-10 06:42:12 51°13.244 2°50.906 10.3 306 16.4 101230 45
2010-08-10 06:42:17 51°13.233 2°50.878 10.9 318 16.4 101240 46
2010-08-10 06:42:22 51°13.223 2°50.851 10.8 301 16.4 101240 46
2010-08-10 06:42:27 51°13.212 2°50.823 10.8 318 16.4 101230 45
2010-08-10 06:42:32 51°13.202 2°50.795 11.1 316 16.4 101230 45
2010-08-10 06:42:37 51°13.191 2°50.768 11.1 320 16.4 101240 45
2010-08-10 06:42:42 51°13.181 2°50.74 10.7 304 16.4 101240 45
2010-08-10 06:42:47 51°13.17 2°50.712 11.8 317 16.4 101240 46
2010-08-10 06:42:52 51°13.16 2°50.684 10.6 306 16.4 101240 46
2010-08-10 06:42:57 51°13.15 2°50.656 11 316 16.4 101240 44
2010-08-10 06:43:01 51°13.141 2°50.634 11 308 16.4 101240 44
2010-08-10 06:43:07 51°13.129 2°50.6 10.4 316 16.4 101240 45
2010-08-10 06:43:12 51°13.119 2°50.572 11.5 301 16.4 101240 45
2010-08-10 06:43:17 51°13.109 2°50.544 10.8 316 16.4 101240 46
2010-08-10 06:43:22 51°13.098 2°50.516 10.8 304 16.4 101240 46
2010-08-10 06:43:27 51°13.088 2°50.488 10.4 317 16.4 101250 45
2010-08-10 06:43:33 51°13.076 2°50.454 11.7 277 16.4 101250 45
2010-08-10 06:43:37 51°13.067 2°50.432 10.6 316 16.4 101240 45
2010-08-10 06:43:42 51°13.057 2°50.404 10.7 307 16.4 101240 45
2010-08-10 06:43:47 51°13.047 2°50.376 10.8 317 16.4 101230 45
2010-08-10 06:43:52 51°13.037 2°50.347 10.7 304 16.4 101230 45
2010-08-10 06:43:57 51°13.026 2°50.319 11 317 16.4 101230 45
2010-08-10 06:44:02 51°13.016 2°50.291 12 306 16.4 101230 45
2010-08-10 06:44:07 51°13.006 2°50.263 11.7 318 16.4 101250 46
2010-08-10 06:44:12 51°12.995 2°50.235 11 320 16.4 101250 46
2010-08-10 06:44:17 51°12.985 2°50.207 11.2 319 16.5 101250 46
2010-08-10 06:44:22 51°12.974 2°50.179 11 306 16.5 101250 46
2010-08-10 06:44:27 51°12.964 2°50.151 10.6 318 16.4 101230 45
2010-08-10 06:44:32 51°12.954 2°50.123 10.3 321 16.4 101230 45
2010-08-10 06:44:37 51°12.943 2°50.094 10.3 320 16.4 101240 45
2010-08-10 06:44:41 51°12.935 2°50.072 10.1 301 16.4 101240 45
2010-08-10 06:44:47 51°12.922 2°50.038 10.9 318 16.4 101240 45
2010-08-10 06:44:52 51°12.912 2°50.01 11.3 320 16.4 101240 45
2010-08-10 06:44:57 51°12.901 2°49.982 10.2 320 16.5 101240 45
2010-08-10 06:45:02 51°12.891 2°49.953 11.1 318 16.5 101240 45
2010-08-10 06:45:07 51°12.881 2°49.925 11.9 317 16.5 101240 45
2010-08-10 06:45:12 51°12.87 2°49.897 10.5 304 16.5 101240 45
2010-08-10 06:45:17 51°12.859 2°49.869 10.7 320 16.5 101240 45
2010-08-10 06:45:21 51°12.851 2°49.846 10.6 305 16.5 101240 45
2010-08-10 06:45:27 51°12.838 2°49.812 11 320 16.5 101240 46
2010-08-10 06:45:32 51°12.828 2°49.784 11.3 281 16.5 101240 46
2010-08-10 06:45:37 51°12.817 2°49.756 10.6 320 16.5 101240 45
2010-08-10 06:45:42 51°12.807 2°49.728 11.1 307 16.5 101240 45
2010-08-10 06:45:47 51°12.796 2°49.699 10 316 16.5 101250 45
2010-08-10 06:45:53 51°12.784 2°49.665 10.8 308 16.5 101250 45
2010-08-10 06:45:57 51°12.775 2°49.643 11.3 320 16.5 101250 45
2010-08-10 06:46:02 51°12.765 2°49.614 10.5 302 16.5 101250 45
2010-08-10 06:46:07 51°12.755 2°49.586 10.6 318 16.5 101240 45
2010-08-10 06:46:12 51°12.744 2°49.558 10.1 302 16.5 101240 45
2010-08-10 06:46:17 51°12.734 2°49.529 11.3 317 16.6 101240 46
2010-08-10 06:46:22 51°12.724 2°49.501 11 304 16.6 101240 46
2010-08-10 06:46:27 51°12.713 2°49.473 10.8 320 16.6 101240 45
2010-08-10 06:46:32 51°12.703 2°49.445 12 319 16.6 101240 45
2010-08-10 06:46:37 51°12.692 2°49.417 11.1 318 16.6 101240 46
2010-08-10 06:46:42 51°12.682 2°49.389 12.1 309 16.6 101240 46
2010-08-10 06:46:47 51°12.672 2°49.361 11.7 320 16.6 101230 46
2010-08-10 06:46:52 51°12.661 2°49.332 10.9 320 16.6 101230 46
2010-08-10 06:46:57 51°12.651 2°49.304 11.1 319 16.6 101220 45
2010-08-10 06:47:01 51°12.643 2°49.282 10.6 308 16.6 101220 45
2010-08-10 06:47:07 51°12.63 2°49.248 10.8 24 16.6 101230 45
2010-08-10 06:47:12 51°12.62 2°49.22 10.4 305 16.6 101230 45
2010-08-10 06:47:17 51°12.61 2°49.192 10.2 319 16.6 101240 45
2010-08-10 06:47:22 51°12.599 2°49.165 10.3 318 16.6 101240 45
2010-08-10 06:47:27 51°12.589 2°49.137 10.7 317 16.6 101240 46
2010-08-10 06:47:32 51°12.579 2°49.109 11.3 277 16.6 101240 46
2010-08-10 06:47:37 51°12.568 2°49.082 11.6 317 16.7 101240 46
2010-08-10 06:47:42 51°12.558 2°49.054 11.3 316 16.7 101240 46
2010-08-10 06:47:47 51°12.548 2°49.026 10 319 16.7 101240 46
2010-08-10 06:47:52 51°12.538 2°48.998 11.4 301 16.7 101240 46
2010-08-10 06:47:57 51°12.527 2°48.971 11.4 321 16.7 101240 45
2010-08-10 06:48:02 51°12.517 2°48.943 10.8 304 16.7 101240 45
2010-08-10 06:48:07 51°12.507 2°48.915 11.6 319 16.7 101240 45
2010-08-10 06:48:13 51°12.494 2°48.882 11.9 307 16.7 101240 45
2010-08-10 06:48:17 51°12.486 2°48.86 11.5 317 16.7 101240 44
2010-08-10 06:48:22 51°12.476 2°48.833 11.6 303 16.7 101240 44
2010-08-10 06:48:27 51°12.465 2°48.805 12 317 16.7 101240 45
2010-08-10 06:48:32 51°12.455 2°48.777 11.4 303 16.7 101240 45
2010-08-10 06:48:37 51°12.445 2°48.75 11.6 317 16.7 101230 45
2010-08-10 06:48:42 51°12.434 2°48.722 11.9 308 16.7 101230 45
2010-08-10 06:48:47 51°12.424 2°48.694 11.5 321 16.7 101230 45
2010-08-10 06:48:52 51°12.414 2°48.667 12.5 318 16.7 101230 45
2010-08-10 06:48:57 51°12.403 2°48.639 11.6 317 16.7 101230 46
2010-08-10 06:49:01 51°12.395 2°48.617 12.1 304 16.7 101230 46
2010-08-10 06:49:07 51°12.383 2°48.584 12.6 320 16.8 101230 46
2010-08-10 06:49:12 51°12.373 2°48.556 11 303 16.8 101230 46
2010-08-10 06:49:17 51°12.362 2°48.528 10.3 321 16.8 101240 45
2010-08-10 06:49:22 51°12.352 2°48.501 10.7 302 16.8 101240 45
2010-08-10 06:49:27 51°12.341 2°48.473 12 318 16.8 101220 46
2010-08-10 06:49:32 51°12.331 2°48.446 11.4 305 16.8 101220 46
2010-08-10 06:49:37 51°12.321 2°48.418 10.7 319 16.8 101240 46
2010-08-10 06:49:41 51°12.313 2°48.396 10.3 309 16.8 101240 46
2010-08-10 06:49:47 51°12.301 2°48.362 12.3 316 16.8 101240 46
2010-08-10 06:49:52 51°12.291 2°48.334 11.8 306 16.8 101240 46
2010-08-10 06:49:57 51°12.28 2°48.306 12.5 320 16.8 101240 45
2010-08-10 06:50:02 51°12.27 2°48.279 11.5 304 16.8 101240 45
2010-08-10 06:50:07 51°12.26 2°48.251 11.9 320 16.8 101240 46
2010-08-10 06:50:12 51°12.25 2°48.223 12.8 301 16.8 101240 46
2010-08-10 06:50:17 51°12.24 2°48.196 12.6 318 16.8 101240 46
2010-08-10 06:50:21 51°12.232 2°48.173 12.5 303 16.8 101240 46
2010-08-10 06:50:27 51°12.219 2°48.14 11 319 16.8 101240 46
2010-08-10 06:50:32 51°12.21 2°48.112 11.6 302 16.8 101240 46
2010-08-10 06:50:37 51°12.199 2°48.084 11.8 321 16.8 101240 45
2010-08-10 06:50:42 51°12.189 2°48.056 12.4 300 16.8 101240 45
2010-08-10 06:50:47 51°12.179 2°48.029 12.3 318 16.8 101240 45
2010-08-10 06:50:53 51°12.167 2°47.995 11.9 301 16.8 101240 45
2010-08-10 06:50:57 51°12.159 2°47.973 11.8 320 16.9 101250 45
2010-08-10 06:51:02 51°12.149 2°47.945 11 301 16.9 101250 45
2010-08-10 06:51:07 51°12.139 2°47.918 12 319 16.9 101250 45
2010-08-10 06:51:12 51°12.129 2°47.89 10.9 304 16.9 101250 45
2010-08-10 06:51:17 51°12.119 2°47.863 11.6 320 16.9 101240 46
2010-08-10 06:51:22 51°12.108 2°47.835 11.3 305 16.9 101240 46
2010-08-10 06:51:27 51°12.098 2°47.808 11.7 322 16.9 101240 46
2010-08-10 06:51:32 51°12.088 2°47.781 12 303 16.9 101240 46
2010-08-10 06:51:37 51°12.078 2°47.753 11.4 319 16.9 101240 46
2010-08-10 06:51:42 51°12.068 2°47.726 12.3 307 16.9 101240 46
2010-08-10 06:51:47 51°12.057 2°47.699 10.8 318 16.9 101230 46
2010-08-10 06:51:52 51°12.047 2°47.671 11.6 305 16.9 101230 46
2010-08-10 06:51:57 51°12.037 2°47.644 10.7 319 16.9 101240 45
2010-08-10 06:52:02 51°12.027 2°47.617 10.9 310 16.9 101240 45
2010-08-10 06:52:07 51°12.017 2°47.59 11.1 318 16.9 101240 46
2010-08-10 06:52:12 51°12.007 2°47.562 11.7 306 16.9 101240 46
2010-08-10 06:52:17 51°11.997 2°47.535 10.5 317 16.9 101250 45
2010-08-10 06:52:22 51°11.987 2°47.508 11 302 16.9 101250 45
2010-08-10 06:52:27 51°11.977 2°47.48 11.3 317 16.9 101250 46
2010-08-10 06:52:33 51°11.965 2°47.448 10.5 303 16.9 101250 46
2010-08-10 06:52:37 51°11.957 2°47.426 11.3 317 17 101250 45
2010-08-10 06:52:42 51°11.947 2°47.398 10.9 302 17 101250 45
2010-08-10 06:52:47 51°11.937 2°47.371 9.6 319 16.9 101240 46
2010-08-10 06:52:52 51°11.927 2°47.344 10.8 308 16.9 101240 46
2010-08-10 06:52:57 51°11.917 2°47.317 12.6 320 16.9 101240 45
2010-08-10 06:53:02 51°11.907 2°47.29 11.5 301 16.9 101240 45
2010-08-10 06:53:07 51°11.897 2°47.263 11.6 318 16.9 101240 45
2010-08-10 06:53:12 51°11.887 2°47.236 11.5 307 16.9 101240 45
2010-08-10 06:53:17 51°11.877 2°47.209 12.2 317 16.9 101240 45
2010-08-10 06:53:21 51°11.87 2°47.187 10.8 302 16.9 101240 45
2010-08-10 06:53:27 51°11.858 2°47.154 10.6 318 16.9 101240 46
2010-08-10 06:53:32 51°11.848 2°47.127 9.9 306 16.9 101240 46
2010-08-10 06:53:37 51°11.838 2°47.1 10.8 320 17 101240 44
2010-08-10 06:53:42 51°11.828 2°47.073 10.9 303 17 101240 44
2010-08-10 06:53:47 51°11.818 2°47.046 10.2 319 17 101240 46
2010-08-10 06:53:53 51°11.806 2°47.014 10.9 307 17 101240 46
2010-08-10 06:53:57 51°11.798 2°46.992 10.5 321 17 101240 45
2010-08-10 06:54:01 51°11.79 2°46.97 11.3 308 17 101240 45
2010-08-10 06:54:07 51°11.778 2°46.938 10.4 321 17 101240 45
2010-08-10 06:54:12 51°11.768 2°46.911 10.5 304 17 101240 45
2010-08-10 06:54:17 51°11.759 2°46.884 11.4 320 17 101240 45
2010-08-10 06:54:22 51°11.749 2°46.857 10.5 307 17 101240 45
2010-08-10 06:54:27 51°11.739 2°46.829 11.2 321 17 101240 46
2010-08-10 06:54:32 51°11.729 2°46.802 11.9 304 17 101240 46
2010-08-10 06:54:37 51°11.719 2°46.775 10.3 320 17 101250 46
2010-08-10 06:54:41 51°11.711 2°46.754 10.5 307 17 101250 46
2010-08-10 06:54:47 51°11.699 2°46.721 11.1 319 17 101240 45
2010-08-10 06:54:52 51°11.689 2°46.694 10.6 307 17 101240 45
2010-08-10 06:54:57 51°11.68 2°46.667 10.7 319 16.9 101240 46
2010-08-10 06:55:02 51°11.67 2°46.64 10.2 302 16.9 101240 46
2010-08-10 06:55:07 51°11.66 2°46.613 9.9 320 16.9 101240 46
2010-08-10 06:55:12 51°11.65 2°46.586 10.3 303 16.9 101240 46
2010-08-10 06:55:17 51°11.64 2°46.559 11.3 320 17 101240 46
2010-08-10 06:55:21 51°11.632 2°46.538 10.7 302 17 101240 46
2010-08-10 06:55:27 51°11.621 2°46.505 11 319 16.9 101250 45
2010-08-10 06:55:32 51°11.611 2°46.478 10.5 282 16.9 101250 45
2010-08-10 06:55:37 51°11.601 2°46.451 11.8 320 17 101240 46
2010-08-10 06:55:42 51°11.592 2°46.424 11.5 309 17 101240 46
2010-08-10 06:55:47 51°11.582 2°46.397 10.2 321 17 101240 45
2010-08-10 06:55:53 51°11.57 2°46.364 10.7 308 17 101240 45
2010-08-10 06:55:57 51°11.562 2°46.342 10.1 320 17 101250 46
2010-08-10 06:56:02 51°11.553 2°46.316 10.5 305 17 101250 46
2010-08-10 06:56:07 51°11.543 2°46.288 10.5 323 17 101250 45
2010-08-10 06:56:13 51°11.531 2°46.256 10.2 305 17 101250 45
2010-08-10 06:56:17 51°11.523 2°46.234 11.5 320 17 101250 44
2010-08-10 06:56:22 51°11.514 2°46.207 10.2 308 17 101250 44
2010-08-10 06:56:27 51°11.504 2°46.18 11 320 17 101250 45
2010-08-10 06:56:32 51°11.494 2°46.153 10.6 306 17 101250 45
2010-08-10 06:56:37 51°11.484 2°46.126 11.2 320 17 101250 45
2010-08-10 06:56:41 51°11.476 2°46.104 10.7 307 17 101250 45
2010-08-10 06:56:47 51°11.465 2°46.072 11.1 318 17 101250 45
2010-08-10 06:56:52 51°11.455 2°46.045 10.5 300 17 101250 45
2010-08-10 06:56:57 51°11.445 2°46.018 10.3 322 17 101250 46
2010-08-10 06:57:02 51°11.435 2°45.991 12 304 17 101250 46
2010-08-10 06:57:07 51°11.425 2°45.965 12.2 320 17 101250 46
2010-08-10 06:57:12 51°11.415 2°45.938 10.5 302 17 101250 46
2010-08-10 06:57:17 51°11.405 2°45.911 10 319 17 101250 46
2010-08-10 06:57:21 51°11.397 2°45.89 10.8 305 17 101250 46
2010-08-10 06:57:27 51°11.385 2°45.857 10.6 320 17 101240 46
2010-08-10 06:57:32 51°11.375 2°45.83 11.4 282 17 101240 46
2010-08-10 06:57:37 51°11.366 2°45.803 10.7 321 17 101250 45
2010-08-10 06:57:41 51°11.358 2°45.781 10.9 301 17 101250 45
2010-08-10 06:57:47 51°11.346 2°45.749 10 320 17 101250 45
2010-08-10 06:57:52 51°11.337 2°45.722 10.9 304 17 101250 45
2010-08-10 06:57:57 51°11.327 2°45.695 11.7 321 17 101250 45
2010-08-10 06:58:02 51°11.317 2°45.668 11.2 305 17 101250 45
2010-08-10 06:58:07 51°11.307 2°45.64 11.6 320 17 101250 45
2010-08-10 06:58:13 51°11.296 2°45.608 10.8 306 17 101250 45
2010-08-10 06:58:17 51°11.288 2°45.586 10.7 323 17 101250 46
2010-08-10 06:58:22 51°11.278 2°45.559 11.4 324 17 101250 46
2010-08-10 06:58:27 51°11.268 2°45.532 10.5 320 17.1 101250 47
2010-08-10 06:58:32 51°11.259 2°45.505 11.5 307 17.1 101250 47
2010-08-10 06:58:37 51°11.249 2°45.478 11.3 319 17.1 101240 46
2010-08-10 06:58:42 51°11.239 2°45.451 10.6 309 17.1 101240 46
2010-08-10 06:58:47 51°11.229 2°45.424 11 317 17.1 101250 47
2010-08-10 06:58:52 51°11.219 2°45.397 11.2 300 17.1 101250 47
2010-08-10 06:58:57 51°11.21 2°45.37 11.2 318 17.1 101250 45
2010-08-10 06:59:02 51°11.2 2°45.344 10.4 307 17.1 101250 45
2010-08-10 06:59:07 51°11.19 2°45.317 11.7 320 17.1 101240 46
2010-08-10 06:59:12 51°11.18 2°45.29 10.4 302 17.1 101240 46
2010-08-10 06:59:17 51°11.17 2°45.263 10.7 317 17.1 101240 46
2010-08-10 06:59:22 51°11.16 2°45.236 10.2 304 17.1 101240 46
2010-08-10 06:59:27 51°11.151 2°45.209 11.5 322 17.1 101250 46
2010-08-10 06:59:33 51°11.139 2°45.176 11.6 282 17.1 101250 46
2010-08-10 06:59:37 51°11.131 2°45.155 11.6 321 17.1 101240 46
2010-08-10 06:59:42 51°11.122 2°45.128 10.7 308 17.1 101240 46
2010-08-10 06:59:47 51°11.112 2°45.101 10.1 321 17.1 101240 46
2010-08-10 06:59:52 51°11.102 2°45.074 10.1 304 17.1 101240 46
2010-08-10 06:59:57 51°11.093 2°45.047 10.5 319 17.1 101240 46
2010-08-10 07:00:02 51°11.083 2°45.02 11.7 307 17.1 101240 46
2010-08-10 07:00:07 51°11.073 2°44.993 11.1 321 17.1 101240 46
2010-08-10 07:00:12 51°11.064 2°44.965 10.6 304 17.1 101240 46
2010-08-10 07:00:17 51°11.054 2°44.939 10.5 321 17.1 101250 46
2010-08-10 07:00:21 51°11.046 2°44.917 10.7 303 17.1 101250 46
2010-08-10 07:00:27 51°11.034 2°44.885 11.5 319 17.2 101240 46
2010-08-10 07:00:32 51°11.025 2°44.857 10 300 17.2 101240 46
2010-08-10 07:00:37 51°11.015 2°44.831 11.2 319 17.1 101240 46
2010-08-10 07:00:42 51°11.006 2°44.804 10.8 304 17.1 101240 46
2010-08-10 07:00:47 51°10.996 2°44.777 10.1 321 17.1 101240 46
2010-08-10 07:00:52 51°10.987 2°44.75 11.8 300 17.1 101240 46
2010-08-10 07:00:57 51°10.977 2°44.723 11.6 319 17.1 101250 46
2010-08-10 07:01:02 51°10.967 2°44.696 10.7 306 17.1 101250 46
2010-08-10 07:01:07 51°10.958 2°44.669 11.7 323 17.1 101240 46
2010-08-10 07:01:12 51°10.948 2°44.642 10.3 302 17.1 101240 46
2010-08-10 07:01:17 51°10.939 2°44.615 10.6 321 17.2 101250 46
2010-08-10 07:01:22 51°10.929 2°44.588 11 306 17.2 101250 46
2010-08-10 07:01:27 51°10.92 2°44.561 10.6 321 17.2 101240 46
2010-08-10 07:01:32 51°10.91 2°44.534 11.7 280 17.2 101240 46
2010-08-10 07:01:37 51°10.901 2°44.508 10.6 320 17.2 101240 45
2010-08-10 07:01:42 51°10.891 2°44.481 11.7 305 17.2 101240 45
2010-08-10 07:01:47 51°10.882 2°44.454 11.8 320 17.2 101250 46
2010-08-10 07:01:53 51°10.871 2°44.422 10 307 17.2 101250 46
2010-08-10 07:01:57 51°10.863 2°44.401 11.7 317 17.2 101250 46
2010-08-10 07:02:02 51°10.854 2°44.375 11.4 308 17.2 101250 46
2010-08-10 07:02:07 51°10.844 2°44.348 12 320 17.2 101250 46
2010-08-10 07:02:12 51°10.833 2°44.323 10.6 304 17.2 101250 46
2010-08-10 07:02:17 51°10.823 2°44.297 11.3 321 17.2 101230 47
2010-08-10 07:02:22 51°10.811 2°44.273 11 304 17.2 101230 47
2010-08-10 07:02:27 51°10.8 2°44.249 11.5 324 17.2 101240 47
2010-08-10 07:02:32 51°10.788 2°44.225 12 303 17.2 101240 47
2010-08-10 07:02:37 51°10.775 2°44.202 13 322 17.2 101230 47
2010-08-10 07:02:42 51°10.763 2°44.179 10.4 302 17.2 101230 47
2010-08-10 07:02:47 51°10.75 2°44.157 12.4 322 17.3 101240 46
2010-08-10 07:02:53 51°10.734 2°44.131 11.3 303 17.3 101240 46
2010-08-10 07:02:57 51°10.724 2°44.114 10.8 325 17.3 101230 46
2010-08-10 07:03:02 51°10.71 2°44.093 11.5 307 17.3 101230 46
2010-08-10 07:03:07 51°10.697 2°44.071 12.8 322 17.2 101240 46
2010-08-10 07:03:12 51°10.684 2°44.051 10.9 303 17.2 101240 46
2010-08-10 07:03:17 51°10.67 2°44.03 11 325 17.3 101230 47
2010-08-10 07:03:22 51°10.657 2°44.009 12.5 304 17.3 101230 47
2010-08-10 07:03:27 51°10.644 2°43.988 11.5 325 17.3 101240 47
2010-08-10 07:03:32 51°10.631 2°43.966 12.4 279 17.3 101240 47
2010-08-10 07:03:37 51°10.618 2°43.945 11 323 17.2 101220 46
2010-08-10 07:03:42 51°10.605 2°43.923 10.3 304 17.2 101220 46
2010-08-10 07:03:47 51°10.593 2°43.901 11.1 327 17.2 101240 46
2010-08-10 07:03:53 51°10.577 2°43.875 11.8 323 17.2 101240 46
2010-08-10 07:03:57 51°10.568 2°43.857 11 323 17.2 101230 46
2010-08-10 07:04:01 51°10.558 2°43.839 10.9 302 17.2 101230 46
2010-08-10 07:04:07 51°10.544 2°43.812 10.7 320 17.2 101230 46
2010-08-10 07:04:12 51°10.532 2°43.789 11.5 302 17.2 101230 46
2010-08-10 07:04:17 51°10.52 2°43.766 12.3 323 17.2 101240 45
2010-08-10 07:04:22 51°10.509 2°43.742 11.6 308 17.2 101240 45
2010-08-10 07:04:27 51°10.497 2°43.719 11.5 321 17.2 101250 46
2010-08-10 07:04:32 51°10.486 2°43.695 10.5 302 17.2 101250 46
2010-08-10 07:04:37 51°10.474 2°43.672 10.3 324 17.2 101240 46
2010-08-10 07:04:41 51°10.465 2°43.653 11.2 307 17.2 101240 46
2010-08-10 07:04:47 51°10.451 2°43.626 10.7 322 17.2 101230 46
2010-08-10 07:04:52 51°10.439 2°43.603 10.9 303 17.2 101230 46
2010-08-10 07:04:57 51°10.426 2°43.58 10.2 323 17.2 101230 45
2010-08-10 07:05:01 51°10.416 2°43.561 10.5 303 17.2 101230 45
2010-08-10 07:05:07 51°10.402 2°43.533 10.8 325 17.2 101240 46
2010-08-10 07:05:13 51°10.387 2°43.506 10.7 303 17.2 101240 46
2010-08-10 07:05:17 51°10.377 2°43.488 10.4 323 17.2 101240 46
2010-08-10 07:05:21 51°10.368 2°43.469 10.7 304 17.2 101240 46
2010-08-10 07:05:27 51°10.354 2°43.441 10.8 324 17.2 101230 46
2010-08-10 07:05:32 51°10.341 2°43.418 10.1 282 17.2 101230 46
2010-08-10 07:05:37 51°10.329 2°43.395 10.4 325 17.2 101240 45
2010-08-10 07:05:42 51°10.317 2°43.371 9.9 304 17.2 101240 45
2010-08-10 07:05:47 51°10.305 2°43.348 11 324 17.2 101240 46
2010-08-10 07:05:52 51°10.294 2°43.325 9.8 306 17.2 101240 46
2010-08-10 07:05:57 51°10.282 2°43.302 10.2 323 17.2 101240 46
2010-08-10 07:06:02 51°10.271 2°43.28 9.5 304 17.2 101240 46
2010-08-10 07:06:07 51°10.26 2°43.258 10.7 322 17.1 101240 45
2010-08-10 07:06:12 51°10.249 2°43.236 10.1 303 17.1 101240 45
2010-08-10 07:06:17 51°10.238 2°43.216 8.6 320 17.2 101230 46
2010-08-10 07:06:22 51°10.228 2°43.196 10 301 17.2 101230 46
2010-08-10 07:06:27 51°10.217 2°43.178 10.7 322 17.1 101240 45
2010-08-10 07:06:32 51°10.207 2°43.162 11.3 301 17.1 101240 45
2010-08-10 07:06:37 51°10.197 2°43.146 10.9 323 17.2 101240 46
2010-08-10 07:06:42 51°10.188 2°43.131 10.2 325 17.2 101240 46
2010-08-10 07:06:47 51°10.179 2°43.117 10.8 318 17.2 101240 46
2010-08-10 07:06:52 51°10.17 2°43.103 9.6 302 17.2 101240 46
2010-08-10 07:06:57 51°10.162 2°43.09 9.6 322 17.2 101250 44
2010-08-10 07:07:02 51°10.154 2°43.078 9.7 307 17.2 101250 44
2010-08-10 07:07:07 51°10.147 2°43.065 9.7 319 17.2 101230 46
2010-08-10 07:07:13 51°10.14 2°43.05 9.3 309 17.2 101230 46
2010-08-10 07:07:17 51°10.135 2°43.04 9.6 25 17.1 101240 46
2010-08-10 07:07:21 51°10.132 2°43.03 7.4 301 17.1 101240 46
2010-08-10 07:07:27 51°10.128 2°43.015 8.1 22 17.1 101230 46
2010-08-10 07:07:32 51°10.125 2°43.002 9 283 17.1 101230 46
2010-08-10 07:07:37 51°10.123 2°42.99 8.5 27 17.1 101240 46
2010-08-10 07:07:41 51°10.122 2°42.981 8.4 310 17.1 101240 46
2010-08-10 07:07:47 51°10.12 2°42.968 8 24 17.1 101250 45
2010-08-10 07:07:52 51°10.12 2°42.957 7.9 303 17.1 101250 45
2010-08-10 07:07:57 51°10.119 2°42.947 8 24 17.1 101250 45
2010-08-10 07:08:02 51°10.118 2°42.938 7.6 301 17.1 101250 45
2010-08-10 07:08:07 51°10.118 2°42.928 7.4 24 17.1 101260 45
2010-08-10 07:08:13 51°10.118 2°42.917 7.1 308 17.1 101260 45
2010-08-10 07:08:17 51°10.117 2°42.911 6.7 250 17.1 101270 46
2010-08-10 07:08:22 51°10.117 2°42.902 5.4 306 17.1 101270 46
2010-08-10 07:08:27 51°10.117 2°42.895 6.6 252 17.1 101260 45
2010-08-10 07:08:32 51°10.117 2°42.888 7.6 307 17.1 101260 45
2010-08-10 07:08:37 51°10.117 2°42.881 8 256 17.1 101260 47
2010-08-10 07:08:42 51°10.118 2°42.875 7.7 307 17.1 101260 47
2010-08-10 07:08:47 51°10.118 2°42.87 7.4 262 17.2 101270 46
2010-08-10 07:08:52 51°10.119 2°42.864 7.4 303 17.2 101270 46
2010-08-10 07:08:57 51°10.119 2°42.86 6.8 261 17.2 101270 46
2010-08-10 07:09:01 51°10.119 2°42.857 5.9 302 17.2 101270 46
2010-08-10 07:09:07 51°10.119 2°42.852 4.4 263 17.2 101270 46
2010-08-10 07:09:12 51°10.12 2°42.849 4.8 307 17.2 101270 46
2010-08-10 07:09:17 51°10.12 2°42.846 6.3 269 17.2 101280 47
2010-08-10 07:09:22 51°10.12 2°42.843 6.3 308 17.2 101280 47
2010-08-10 07:09:27 51°10.12 2°42.84 5.9 270 17.2 101270 45
2010-08-10 07:09:32 51°10.12 2°42.838 6.1 282 17.2 101270 45
2010-08-10 07:09:37 51°10.119 2°42.837 6.5 270 17.2 101280 45
2010-08-10 07:09:41 51°10.119 2°42.835 5.8 310 17.2 101280 45
2010-08-10 07:09:47 51°10.119 2°42.834 5.9 268 17.1 101280 47
2010-08-10 07:09:52 51°10.118 2°42.832 5.6 306 17.1 101280 47
2010-08-10 07:09:57 51°10.118 2°42.831 6 31 17.2 101280 46
2010-08-10 07:10:02 51°10.118 2°42.829 6.1 52 17.2 101280 46
2010-08-10 07:10:07 51°10.117 2°42.828 6.5 28 17.2 101280 47
2010-08-10 07:10:12 51°10.117 2°42.826 6.1 59 17.2 101280 47
2010-08-10 07:10:17 51°10.117 2°42.825 7 22 17.2 101280 47
2010-08-10 07:10:21 51°10.117 2°42.824 6.2 54 17.2 101280 47
2010-08-10 07:10:27 51°10.116 2°42.822 5.5 271 17.1 101270 46
2010-08-10 07:10:32 51°10.116 2°42.821 7.2 54 17.1 101270 46
2010-08-10 07:10:37 51°10.116 2°42.819 6.7 26 17.1 101280 45
2010-08-10 07:10:42 51°10.116 2°42.818 6 58 17.1 101280 45
2010-08-10 07:10:47 51°10.116 2°42.817 6.6 29 17.1 101290 47
2010-08-10 07:10:53 51°10.115 2°42.815 5.8 52 17.1 101290 47
2010-08-10 07:10:57 51°10.115 2°42.814 5 22 17.1 101280 45
2010-08-10 07:11:02 51°10.115 2°42.812 5.3 58 17.1 101280 45
2010-08-10 07:11:07 51°10.115 2°42.81 5.6 23 17.1 101280 45
2010-08-10 07:11:12 51°10.115 2°42.809 5.9 53 17.1 101280 45
2010-08-10 07:11:17 51°10.114 2°42.808 5.8 23 17.1 101280 45
2010-08-10 07:11:22 51°10.114 2°42.806 6.1 53 17.1 101280 45
2010-08-10 07:11:27 51°10.114 2°42.805 6.6 25 17.1 101270 45
2010-08-10 07:11:32 51°10.114 2°42.803 6.7 83 17.1 101270 45
2010-08-10 07:11:37 51°10.114 2°42.802 6.3 23 17.1 101270 47
2010-08-10 07:11:42 51°10.114 2°42.801 6.3 59 17.1 101270 47
2010-08-10 07:11:47 51°10.114 2°42.799 6 26 17.1 101270 45
2010-08-10 07:11:53 51°10.114 2°42.798 6.3 55 17.1 101270 45
2010-08-10 07:11:57 51°10.114 2°42.797 6.3 22 17.1 101280 45
2010-08-10 07:12:01 51°10.114 2°42.796 5.7 56 17.1 101280 45
2010-08-10 07:12:07 51°10.114 2°42.794 5.9 26 17.1 101270 45
2010-08-10 07:12:12 51°10.114 2°42.793 6.1 52 17.1 101270 45
2010-08-10 07:12:17 51°10.114 2°42.791 6.9 30 17.1 101270 44
2010-08-10 07:12:23 51°10.114 2°42.789 6.4 52 17.1 101270 44
2010-08-10 07:12:28 51°10.114 2°42.788 7 24 17 101280 45
2010-08-10 07:12:33 51°10.114 2°42.786 6.1 55 17 101280 45
2010-08-10 07:12:37 51°10.114 2°42.785 7.3 24 17 101280 45
2010-08-10 07:12:43 51°10.114 2°42.783 6.9 54 17 101280 45
2010-08-10 07:12:48 51°10.114 2°42.782 6.7 28 17 101280 46
2010-08-10 07:12:53 51°10.114 2°42.781 5.9 57 17 101280 46
2010-08-10 07:12:57 51°10.114 2°42.779 5.5 266 17.1 101280 46
2010-08-10 07:13:02 51°10.115 2°42.778 5.9 54 17.1 101280 46
2010-08-10 07:13:07 51°10.115 2°42.776 5.8 26 17.1 101280 45
2010-08-10 07:13:12 51°10.114 2°42.775 5.9 57 17.1 101280 45
2010-08-10 07:13:17 51°10.114 2°42.773 6.4 22 17 101270 44
2010-08-10 07:13:22 51°10.114 2°42.772 5.8 308 17 101270 44
2010-08-10 07:13:27 51°10.114 2°42.77 6.2 31 17 101270 46
2010-08-10 07:13:33 51°10.114 2°42.768 6.8 79 17 101270 46
2010-08-10 07:13:37 51°10.114 2°42.767 5.7 26 17 101270 47
2010-08-10 07:13:42 51°10.114 2°42.765 7 61 17 101270 47
2010-08-10 07:13:47 51°10.114 2°42.764 6 270 17 101270 46
2010-08-10 07:13:53 51°10.114 2°42.762 5.7 309 17 101270 46
2010-08-10 07:13:57 51°10.114 2°42.761 5.8 33 17.1 101270 46
2010-08-10 07:14:02 51°10.114 2°42.759 5.6 60 17.1 101270 46
2010-08-10 07:14:07 51°10.114 2°42.757 5.4 23 17 101280 45
2010-08-10 07:14:13 51°10.114 2°42.755 6.3 59 17 101280 45
2010-08-10 07:14:17 51°10.114 2°42.754 5 24 17.1 101270 46
2010-08-10 07:14:23 51°10.114 2°42.752 5.1 306 17.1 101270 46
2010-08-10 07:14:28 51°10.114 2°42.75 5.7 267 17.1 101270 46
2010-08-10 07:14:33 51°10.114 2°42.749 5.7 307 17.1 101270 46
2010-08-10 07:14:37 51°10.114 2°42.747 6.1 267 17 101280 47
2010-08-10 07:14:42 51°10.114 2°42.746 6 308 17 101280 47
2010-08-10 07:14:47 51°10.113 2°42.744 5.3 268 17.1 101280 47
2010-08-10 07:14:52 51°10.113 2°42.742 4 307 17.1 101280 47
2010-08-10 07:14:57 51°10.113 2°42.741 5.3 267 17 101280 45
2010-08-10 07:15:03 51°10.113 2°42.739 5.5 307 17 101280 45
2010-08-10 07:15:08 51°10.113 2°42.737 4.1 265 17.1 101280 46
2010-08-10 07:15:13 51°10.113 2°42.735 4.9 308 17.1 101280 46
2010-08-10 07:15:17 51°10.113 2°42.734 5.9 267 17.1 101270 46
2010-08-10 07:15:23 51°10.113 2°42.732 5.3 310 17.1 101270 46
2010-08-10 07:15:28 51°10.112 2°42.731 6 266 17 101270 45
2010-08-10 07:15:33 51°10.112 2°42.729 5.3 276 17 101270 45
2010-08-10 07:15:37 51°10.112 2°42.728 5.2 268 17 101270 45
2010-08-10 07:15:42 51°10.112 2°42.726 6.3 306 17 101270 45
2010-08-10 07:15:47 51°10.112 2°42.725 3.9 268 17.1 101280 45
2010-08-10 07:15:52 51°10.112 2°42.723 4.9 303 17.1 101280 45
2010-08-10 07:15:57 51°10.111 2°42.721 4.8 264 17.1 101280 47
2010-08-10 07:16:02 51°10.111 2°42.72 3.3 301 17.1 101280 47
2010-08-10 07:16:07 51°10.111 2°42.718 5.2 262 17 101270 47
2010-08-10 07:16:12 51°10.111 2°42.717 4.1 308 17 101270 47
2010-08-10 07:16:17 51°10.111 2°42.715 4.4 265 17.1 101270 45
2010-08-10 07:16:22 51°10.111 2°42.713 4.1 308 17.1 101270 45
2010-08-10 07:16:27 51°10.11 2°42.712 4.5 260 17.1 101280 47
2010-08-10 07:16:32 51°10.11 2°42.71 5 301 17.1 101280 47
2010-08-10 07:16:37 51°10.11 2°42.709 4.6 266 17.1 101270 45
2010-08-10 07:16:42 51°10.11 2°42.707 5 302 17.1 101270 45
2010-08-10 07:16:47 51°10.11 2°42.706 4.1 264 17.1 101270 47
2010-08-10 07:16:52 51°10.11 2°42.704 5 300 17.1 101270 47
2010-08-10 07:16:57 51°10.109 2°42.702 4.5 266 17.1 101280 46
2010-08-10 07:17:01 51°10.109 2°42.701 4.5 307 17.1 101280 46
2010-08-10 07:17:07 51°10.109 2°42.699 5.3 263 17.1 101270 46
2010-08-10 07:17:12 51°10.109 2°42.698 5.2 309 17.1 101270 46
2010-08-10 07:17:17 51°10.109 2°42.696 5.7 261 17.1 101270 46
2010-08-10 07:17:22 51°10.109 2°42.695 6.8 306 17.1 101270 46
2010-08-10 07:17:27 51°10.108 2°42.693 4.7 261 17.1 101280 46
2010-08-10 07:17:32 51°10.108 2°42.692 4.8 282 17.1 101280 46
2010-08-10 07:17:37 51°10.108 2°42.69 4.8 262 17.1 101270 45
2010-08-10 07:17:41 51°10.108 2°42.689 4.8 308 17.1 101270 45
2010-08-10 07:17:47 51°10.108 2°42.687 5.5 263 17.1 101270 45
2010-08-10 07:17:52 51°10.108 2°42.686 6.4 301 17.1 101270 45
2010-08-10 07:17:57 51°10.107 2°42.684 6.2 261 17.1 101270 46
2010-08-10 07:18:02 51°10.107 2°42.683 7.1 306 17.1 101270 46
2010-08-10 07:18:07 51°10.107 2°42.681 6.7 258 17.1 101280 45
2010-08-10 07:18:12 51°10.107 2°42.68 8.3 307 17.1 101280 45
2010-08-10 07:18:17 51°10.107 2°42.678 7.4 259 17.1 101270 46
2010-08-10 07:18:21 51°10.107 2°42.677 5.8 305 17.1 101270 46
2010-08-10 07:18:27 51°10.107 2°42.675 6.8 258 17.1 101280 45
2010-08-10 07:18:32 51°10.107 2°42.674 6.2 306 17.1 101280 45
2010-08-10 07:18:37 51°10.107 2°42.673 7.7 256 17.1 101280 45
2010-08-10 07:18:41 51°10.107 2°42.672 7.5 307 17.1 101280 45
2010-08-10 07:18:47 51°10.107 2°42.67 7.2 257 17.1 101270 45
2010-08-10 07:18:52 51°10.107 2°42.669 5.6 308 17.1 101270 45
2010-08-10 07:18:57 51°10.107 2°42.667 5.3 261 17.1 101270 46
2010-08-10 07:19:02 51°10.106 2°42.666 6.5 307 17.1 101270 46
2010-08-10 07:19:07 51°10.107 2°42.664 6.1 261 17.1 101270 47
2010-08-10 07:19:13 51°10.107 2°42.661 6.1 305 17.1 101270 47
2010-08-10 07:19:17 51°10.107 2°42.659 7 257 17.1 101270 46
2010-08-10 07:19:22 51°10.107 2°42.655 6.1 306 17.1 101270 46
2010-08-10 07:19:27 51°10.108 2°42.651 6.6 260 17.1 101280 45
2010-08-10 07:19:33 51°10.109 2°42.646 7 284 17.1 101280 45
2010-08-10 07:19:37 51°10.109 2°42.642 6.6 261 17.1 101280 46
2010-08-10 07:19:42 51°10.11 2°42.636 6.1 301 17.1 101280 46
2010-08-10 07:19:47 51°10.112 2°42.63 4.6 270 17.1 101270 45
2010-08-10 07:19:53 51°10.115 2°42.623 4.8 304 17.1 101270 45
2010-08-10 07:19:57 51°10.117 2°42.618 5.7 270 17.1 101280 47
2010-08-10 07:20:01 51°10.119 2°42.613 4.2 302 17.1 101280 47
2010-08-10 07:20:07 51°10.123 2°42.605 3.7 270 17.2 101270 45
2010-08-10 07:20:12 51°10.128 2°42.598 5 55 17.2 101270 45
2010-08-10 07:20:17 51°10.132 2°42.591 4.6 269 17.2 101280 45
2010-08-10 07:20:22 51°10.138 2°42.585 3.9 306 17.2 101280 45
2010-08-10 07:20:27 51°10.143 2°42.577 3.3 265 17.2 101270 46
2010-08-10 07:20:33 51°10.151 2°42.568 4.2 309 17.2 101270 46
2010-08-10 07:20:37 51°10.156 2°42.562 3.1 265 17.2 101280 44
2010-08-10 07:20:42 51°10.164 2°42.554 4.1 306 17.2 101280 44
2010-08-10 07:20:47 51°10.171 2°42.546 3.3 267 17.3 101270 47
2010-08-10 07:20:52 51°10.179 2°42.537 3.5 308 17.3 101270 47
2010-08-10 07:20:57 51°10.187 2°42.529 3.5 262 17.3 101270 46
2010-08-10 07:21:02 51°10.196 2°42.521 3.7 308 17.3 101270 46
2010-08-10 07:21:07 51°10.205 2°42.513 3.6 266 17.3 101280 46
2010-08-10 07:21:12 51°10.215 2°42.504 6.2 303 17.3 101280 46
2010-08-10 07:21:17 51°10.224 2°42.496 3.6 266 17.2 101280 45
2010-08-10 07:21:22 51°10.235 2°42.488 4 306 17.2 101280 45
2010-08-10 07:21:27 51°10.245 2°42.48 4.1 265 17.2 101270 45
2010-08-10 07:21:32 51°10.256 2°42.472 4 277 17.2 101270 45
2010-08-10 07:21:37 51°10.267 2°42.465 3.5 269 17.2 101280 45
2010-08-10 07:21:42 51°10.278 2°42.458 3.8 309 17.2 101280 45
2010-08-10 07:21:47 51°10.289 2°42.452 3.6 268 17.2 101280 45
2010-08-10 07:21:53 51°10.303 2°42.444 3.7 304 17.2 101280 45
2010-08-10 07:21:57 51°10.312 2°42.44 4 267 17.2 101270 45
2010-08-10 07:22:02 51°10.324 2°42.435 2.7 300 17.2 101270 45
2010-08-10 07:22:07 51°10.336 2°42.43 3.5 268 17.2 101280 45
2010-08-10 07:22:12 51°10.348 2°42.426 4.3 303 17.2 101280 45
2010-08-10 07:22:17 51°10.36 2°42.422 3.9 27 17.2 101280 45
2010-08-10 07:22:22 51°10.372 2°42.419 3.8 302 17.2 101280 45
2010-08-10 07:22:27 51°10.384 2°42.415 3.7 24 17.2 101280 47
2010-08-10 07:22:32 51°10.396 2°42.411 3 308 17.2 101280 47
2010-08-10 07:22:37 51°10.408 2°42.407 2.5 264 17.2 101280 45
2010-08-10 07:22:42 51°10.42 2°42.403 3.2 302 17.2 101280 45
2010-08-10 07:22:47 51°10.432 2°42.397 3.7 267 17.2 101280 45
2010-08-10 07:22:53 51°10.446 2°42.39 3.9 302 17.2 101280 45
2010-08-10 07:22:57 51°10.456 2°42.385 3.7 30 17.2 101280 44
2010-08-10 07:23:02 51°10.468 2°42.378 3 63 17.2 101280 44
2010-08-10 07:23:07 51°10.48 2°42.371 2.8 268 17.2 101280 47
2010-08-10 07:23:12 51°10.492 2°42.364 3.4 60 17.2 101280 47
2010-08-10 07:23:17 51°10.504 2°42.358 3.5 25 17.2 101280 44
2010-08-10 07:23:22 51°10.516 2°42.352 2.5 54 17.2 101280 44
2010-08-10 07:23:27 51°10.528 2°42.347 2.3 22 17.2 101280 46
2010-08-10 07:23:32 51°10.54 2°42.343 1.7 75 17.2 101280 46
2010-08-10 07:23:37 51°10.553 2°42.338 3.7 25 17.2 101270 45
2010-08-10 07:23:42 51°10.565 2°42.333 3.4 53 17.2 101270 45
2010-08-10 07:23:47 51°10.577 2°42.329 4 29 17.2 101280 45
2010-08-10 07:23:53 51°10.592 2°42.323 3.5 51 17.2 101280 45
2010-08-10 07:23:57 51°10.602 2°42.319 3.2 24 17.2 101280 45
2010-08-10 07:24:01 51°10.611 2°42.315 3.5 308 17.2 101280 45
2010-08-10 07:24:07 51°10.626 2°42.309 3.9 23 17.2 101270 47
2010-08-10 07:24:12 51°10.638 2°42.304 4.1 307 17.2 101270 47
2010-08-10 07:24:17 51°10.65 2°42.298 4.3 267 17.2 101280 45
2010-08-10 07:24:22 51°10.663 2°42.293 4.1 299 17.2 101280 45
2010-08-10 07:24:27 51°10.675 2°42.287 3.5 17 17.2 101280 45
2010-08-10 07:24:32 51°10.687 2°42.281 4.3 314 17.2 101280 45
2010-08-10 07:24:37 51°10.699 2°42.274 3.5 268 17.2 101270 45
2010-08-10 07:24:41 51°10.709 2°42.27 3.5 301 17.2 101270 45
2010-08-10 07:24:47 51°10.724 2°42.263 3.8 27 17.2 101280 44
2010-08-10 07:24:52 51°10.736 2°42.259 3.6 51 17.2 101280 44
2010-08-10 07:24:57 51°10.748 2°42.254 4 23 17.2 101280 45
2010-08-10 07:25:02 51°10.761 2°42.251 3.6 52 17.2 101280 45
2010-08-10 07:25:07 51°10.773 2°42.248 2.8 22 17.2 101270 45
2010-08-10 07:25:12 51°10.785 2°42.245 2.7 59 17.2 101270 45
2010-08-10 07:25:17 51°10.798 2°42.243 2.2 20 17.2 101270 47
2010-08-10 07:25:21 51°10.807 2°42.24 1.8 53 17.2 101270 47
2010-08-10 07:25:27 51°10.822 2°42.238 1.7 22 17.2 101280 46
2010-08-10 07:25:32 51°10.834 2°42.235 2.1 75 17.2 101280 46
2010-08-10 07:25:37 51°10.847 2°42.233 1.8 24 17.2 101270 45
2010-08-10 07:25:42 51°10.859 2°42.231 1.7 60 17.2 101270 45
2010-08-10 07:25:47 51°10.871 2°42.228 2.8 27 17.2 101270 45
2010-08-10 07:25:53 51°10.886 2°42.224 3.7 52 17.2 101270 45
2010-08-10 07:25:57 51°10.896 2°42.222 3.3 23 17.2 101270 45
2010-08-10 07:26:02 51°10.908 2°42.218 3.9 54 17.2 101270 45
2010-08-10 07:26:07 51°10.92 2°42.215 3.9 20 17.3 101270 45
2010-08-10 07:26:12 51°10.933 2°42.211 3.4 52 17.3 101270 45
2010-08-10 07:26:17 51°10.945 2°42.207 3.1 29 17.2 101270 47
2010-08-10 07:26:22 51°10.957 2°42.203 3.3 52 17.2 101270 47
2010-08-10 07:26:27 51°10.97 2°42.199 4.2 28 17.2 101270 45
2010-08-10 07:26:32 51°10.982 2°42.194 3.6 59 17.2 101270 45
2010-08-10 07:26:37 51°10.994 2°42.19 3.3 30 17.2 101270 45
2010-08-10 07:26:41 51°11.004 2°42.186 2.9 54 17.2 101270 45
2010-08-10 07:26:47 51°11.019 2°42.181 2.8 22 17.2 101270 46
2010-08-10 07:26:52 51°11.031 2°42.176 2.8 307 17.2 101270 46
2010-08-10 07:26:57 51°11.044 2°42.171 3.1 25 17.3 101270 47
2010-08-10 07:27:02 51°11.056 2°42.167 2.8 303 17.3 101270 47
2010-08-10 07:27:07 51°11.069 2°42.162 2.8 31 17.3 101270 45
2010-08-10 07:27:12 51°11.081 2°42.157 3 54 17.3 101270 45
2010-08-10 07:27:17 51°11.093 2°42.152 3.5 28 17.3 101270 46
2010-08-10 07:27:21 51°11.103 2°42.148 3.5 315 17.3 101270 46
2010-08-10 07:27:27 51°11.118 2°42.142 3.4 270 17.3 101270 46
2010-08-10 07:27:32 51°11.13 2°42.137 3.3 80 17.3 101270 46
2010-08-10 07:27:37 51°11.142 2°42.131 3.3 24 17.3 101270 47
2010-08-10 07:27:42 51°11.155 2°42.126 2 303 17.3 101270 47
2010-08-10 07:27:47 51°11.166 2°42.119 2.2 262 17.3 101270 48
2010-08-10 07:27:52 51°11.178 2°42.112 4.6 306 17.3 101270 48
2010-08-10 07:27:57 51°11.187 2°42.102 6 259 17.3 101270 46
2010-08-10 07:28:02 51°11.195 2°42.091 6.3 309 17.3 101270 46
2010-08-10 07:28:07 51°11.201 2°42.08 6.9 257 17.3 101270 45
2010-08-10 07:28:12 51°11.207 2°42.068 6.2 301 17.3 101270 45
2010-08-10 07:28:17 51°11.211 2°42.056 6.9 252 17.4 101270 45
2010-08-10 07:28:22 51°11.214 2°42.043 6.8 307 17.4 101270 45
2010-08-10 07:28:27 51°11.217 2°42.031 7 248 17.4 101270 46
2010-08-10 07:28:33 51°11.219 2°42.017 6.5 303 17.4 101270 46
2010-08-10 07:28:37 51°11.22 2°42.007 6.9 246 17.4 101260 46
2010-08-10 07:28:42 51°11.22 2°41.995 6.3 307 17.4 101260 46
2010-08-10 07:28:47 51°11.22 2°41.984 6.6 20 17.4 101260 46
2010-08-10 07:28:52 51°11.219 2°41.973 6.9 306 17.4 101260 46
2010-08-10 07:28:57 51°11.218 2°41.962 7.4 28 17.4 101260 46
2010-08-10 07:29:02 51°11.216 2°41.952 7.2 308 17.4 101260 46
2010-08-10 07:29:07 51°11.214 2°41.942 6.9 22 17.4 101260 46
2010-08-10 07:29:13 51°11.211 2°41.931 7.5 307 17.4 101260 46
2010-08-10 07:29:17 51°11.209 2°41.924 7.6 28 17.5 101260 46
2010-08-10 07:29:22 51°11.206 2°41.916 8.6 308 17.5 101260 46
2010-08-10 07:29:27 51°11.202 2°41.908 8.4 320 17.5 101250 46
2010-08-10 07:29:33 51°11.198 2°41.9 8.3 280 17.5 101250 46
2010-08-10 07:29:37 51°11.195 2°41.895 8.5 320 17.5 101250 47
2010-08-10 07:29:42 51°11.192 2°41.889 8.2 306 17.5 101250 47
2010-08-10 07:29:47 51°11.188 2°41.883 8.8 318 17.5 101250 47
2010-08-10 07:29:52 51°11.184 2°41.878 9.4 325 17.5 101250 47
2010-08-10 07:29:57 51°11.18 2°41.873 9 327 17.5 101250 46
2010-08-10 07:30:02 51°11.176 2°41.868 9.3 331 17.5 101250 46
2010-08-10 07:30:07 51°11.171 2°41.865 9.5 330 17.5 101240 47
2010-08-10 07:30:12 51°11.167 2°41.861 8.2 338 17.5 101240 47
2010-08-10 07:30:17 51°11.162 2°41.859 7.2 340 17.4 101250 46
2010-08-10 07:30:21 51°11.157 2°41.858 7.3 342 17.4 101250 46
2010-08-10 07:30:27 51°11.151 2°41.857 7.7 346 17.5 101250 45
2010-08-10 07:30:32 51°11.147 2°41.857 7.5 283 17.5 101250 45
2010-08-10 07:30:37 51°11.141 2°41.857 7.4 345 17.4 101250 45
2010-08-10 07:30:42 51°11.136 2°41.858 7.4 344 17.4 101250 45
2010-08-10 07:30:47 51°11.131 2°41.858 6.7 344 17.3 101240 45
2010-08-10 07:30:53 51°11.125 2°41.859 8.2 343 17.3 101240 45
2010-08-10 07:30:57 51°11.121 2°41.86 7.3 344 17.4 101250 45
2010-08-10 07:31:35 51°11.076 2°41.862 7.9 343 17.3 101240 45
2010-08-10 07:31:52 51°11.055 2°41.859 7.6 336 17.3 101240 46
2010-08-10 07:31:53 51°11.054 2°41.859 7.6 336 17.3 101240 46
2010-08-10 07:32:01 51°11.043 2°41.857 8 333 17.4 101240 47
2010-08-10 07:33:17 51°10.944 2°41.817 9.2 328 17.4 101240 46
2010-08-10 07:33:21 51°10.939 2°41.813 7.2 304 17.4 101240 46
2010-08-10 07:33:27 51°10.931 2°41.807 7.2 325 17.4 101240 45
2010-08-10 07:33:32 51°10.925 2°41.802 8.5 329 17.4 101240 45
2010-08-10 07:33:37 51°10.919 2°41.796 8.4 323 17.3 101240 45
2010-08-10 07:33:42 51°10.913 2°41.791 7.2 331 17.3 101240 45
2010-08-10 07:33:47 51°10.906 2°41.786 7.9 327 17.3 101240 46
2010-08-10 07:33:53 51°10.899 2°41.78 7.5 328 17.3 101240 46
2010-08-10 07:33:57 51°10.895 2°41.776 9.6 327 17.3 101240 46
2010-08-10 07:34:02 51°10.889 2°41.771 8 329 17.3 101240 46
2010-08-10 07:34:07 51°10.884 2°41.767 8.5 328 17.3 101240 46
2010-08-10 07:34:12 51°10.878 2°41.763 8.3 330 17.3 101240 46
2010-08-10 07:34:17 51°10.873 2°41.758 7.1 331 17.4 101240 46
2010-08-10 07:34:22 51°10.868 2°41.754 7.9 335 17.4 101240 46
2010-08-10 07:34:27 51°10.863 2°41.75 7.9 336 17.3 101240 45
2010-08-10 07:34:33 51°10.857 2°41.746 7.4 277 17.3 101240 45
2010-08-10 07:34:37 51°10.853 2°41.742 7.3 330 17.3 101240 45
2010-08-10 07:34:42 51°10.848 2°41.739 7.7 337 17.3 101240 45
2010-08-10 07:34:47 51°10.844 2°41.735 7.4 331 17.3 101240 45
2010-08-10 07:34:52 51°10.839 2°41.731 7.3 332 17.3 101240 45
2010-08-10 07:34:57 51°10.834 2°41.727 7.5 329 17.3 101240 45
2010-08-10 07:35:02 51°10.83 2°41.723 7.6 329 17.3 101240 45
2010-08-10 07:35:07 51°10.825 2°41.719 6.9 329 17.3 101240 45
2010-08-10 07:35:12 51°10.821 2°41.715 7.4 329 17.3 101240 45
2010-08-10 07:35:17 51°10.817 2°41.711 6.8 330 17.3 101240 46
2010-08-10 07:35:22 51°10.813 2°41.706 7.2 327 17.3 101240 46
2010-08-10 07:35:27 51°10.809 2°41.702 7.9 323 17.3 101240 46
2010-08-10 07:35:32 51°10.805 2°41.697 7 324 17.3 101240 46
2010-08-10 07:35:37 51°10.801 2°41.692 7.9 327 17.3 101240 46
2010-08-10 07:35:41 51°10.797 2°41.688 7 324 17.3 101240 46
2010-08-10 07:35:47 51°10.793 2°41.682 7.1 324 17.3 101240 46
2010-08-10 07:35:52 51°10.789 2°41.677 6.6 302 17.3 101240 46
2010-08-10 07:35:57 51°10.786 2°41.672 6.6 323 17.3 101240 46
2010-08-10 07:36:02 51°10.782 2°41.666 6.3 323 17.3 101240 46
2010-08-10 07:36:07 51°10.779 2°41.661 6.5 321 17.3 101240 45
2010-08-10 07:36:12 51°10.776 2°41.655 6.3 305 17.3 101240 45
2010-08-10 07:36:17 51°10.772 2°41.649 6.5 319 17.3 101240 45
2010-08-10 07:36:21 51°10.77 2°41.645 7.2 307 17.3 101240 45
2010-08-10 07:36:27 51°10.766 2°41.637 6.9 315 17.3 101230 46
2010-08-10 07:36:32 51°10.763 2°41.631 6.1 279 17.3 101230 46
2010-08-10 07:36:37 51°10.76 2°41.625 6.3 23 17.3 101240 45
2010-08-10 07:36:42 51°10.757 2°41.619 6.3 302 17.3 101240 45
2010-08-10 07:36:47 51°10.754 2°41.613 6.1 315 17.3 101230 46
2010-08-10 07:36:53 51°10.751 2°41.605 6.6 306 17.3 101230 46
2010-08-10 07:36:57 51°10.749 2°41.599 7.4 26 17.3 101240 45
2010-08-10 07:37:02 51°10.747 2°41.593 7.5 308 17.3 101240 45
2010-08-10 07:37:07 51°10.744 2°41.586 7.6 22 17.3 101240 45
2010-08-10 07:37:12 51°10.742 2°41.579 8.2 307 17.3 101240 45
2010-08-10 07:37:17 51°10.74 2°41.572 7.8 21 17.3 101240 46
2010-08-10 07:37:22 51°10.737 2°41.565 6.6 300 17.3 101240 46
2010-08-10 07:37:27 51°10.735 2°41.558 6.9 29 17.3 101230 46
2010-08-10 07:37:32 51°10.733 2°41.551 7.4 304 17.3 101230 46
2010-08-10 07:37:37 51°10.731 2°41.544 7.5 23 17.3 101230 47
2010-08-10 07:37:42 51°10.729 2°41.537 6.7 306 17.3 101230 47
2010-08-10 07:37:47 51°10.727 2°41.53 7 24 17.3 101230 46
2010-08-10 07:37:52 51°10.725 2°41.523 8.5 306 17.3 101230 46
2010-08-10 07:37:57 51°10.722 2°41.516 7.7 28 17.3 101230 46
2010-08-10 07:38:01 51°10.721 2°41.511 7.5 306 17.3 101230 46
2010-08-10 07:38:07 51°10.718 2°41.502 8.1 28 17.3 101230 45
2010-08-10 07:38:12 51°10.716 2°41.496 7.7 308 17.3 101230 45
2010-08-10 07:38:17 51°10.714 2°41.489 7.1 21 17.3 101230 45
2010-08-10 07:38:22 51°10.712 2°41.482 6.8 307 17.3 101230 45
2010-08-10 07:38:27 51°10.71 2°41.475 7.2 26 17.3 101230 46
2010-08-10 07:38:32 51°10.707 2°41.469 7.4 278 17.3 101230 46
2010-08-10 07:38:37 51°10.705 2°41.462 6.9 21 17.3 101220 45
2010-08-10 07:38:41 51°10.703 2°41.457 7.5 306 17.3 101220 45
2010-08-10 07:38:47 51°10.7 2°41.448 7.3 27 17.3 101230 45
2010-08-10 07:38:52 51°10.698 2°41.442 6.8 306 17.3 101230 45
2010-08-10 07:38:57 51°10.696 2°41.435 6.9 22 17.3 101220 45
2010-08-10 07:39:02 51°10.693 2°41.428 6.5 307 17.3 101220 45
2010-08-10 07:39:07 51°10.691 2°41.421 6.2 24 17.3 101230 45
2010-08-10 07:39:12 51°10.688 2°41.414 7 308 17.3 101230 45
2010-08-10 07:39:17 51°10.686 2°41.408 6.6 22 17.3 101230 45
2010-08-10 07:39:21 51°10.684 2°41.402 7.1 307 17.3 101230 45
2010-08-10 07:39:27 51°10.681 2°41.394 6.4 25 17.3 101230 46
2010-08-10 07:39:32 51°10.678 2°41.388 6.3 305 17.3 101230 46
2010-08-10 07:39:37 51°10.676 2°41.381 6.7 26 17.3 101230 45
2010-08-10 07:39:42 51°10.673 2°41.374 6.6 307 17.3 101230 45
2010-08-10 07:39:47 51°10.671 2°41.368 6.5 21 17.3 101230 47
2010-08-10 07:39:52 51°10.668 2°41.361 6.5 302 17.3 101230 47
2010-08-10 07:39:57 51°10.665 2°41.354 7.6 27 17.3 101220 46
2010-08-10 07:40:02 51°10.663 2°41.347 7.4 310 17.3 101220 46
2010-08-10 07:40:07 51°10.66 2°41.34 7.3 20 17.3 101220 46
2010-08-10 07:40:12 51°10.658 2°41.333 6 303 17.3 101220 46
2010-08-10 07:40:17 51°10.655 2°41.326 6.2 24 17.3 101230 45
2010-08-10 07:40:22 51°10.653 2°41.319 7.1 302 17.3 101230 45
2010-08-10 07:40:27 51°10.65 2°41.312 7 27 17.3 101220 46
2010-08-10 07:40:32 51°10.647 2°41.305 7 285 17.3 101220 46
2010-08-10 07:40:37 51°10.645 2°41.298 6.6 22 17.3 101220 45
2010-08-10 07:40:42 51°10.642 2°41.292 8.1 303 17.3 101220 45
2010-08-10 07:40:47 51°10.64 2°41.285 7.1 20 17.3 101220 46
2010-08-10 07:40:52 51°10.637 2°41.278 7.3 302 17.3 101220 46
2010-08-10 07:40:57 51°10.635 2°41.271 6.6 23 17.3 101220 45
2010-08-10 07:41:01 51°10.632 2°41.265 6.8 302 17.3 101220 45
2010-08-10 07:41:07 51°10.629 2°41.257 7.1 21 17.3 101220 45
2010-08-10 07:41:12 51°10.627 2°41.25 6.9 306 17.3 101220 45
2010-08-10 07:41:17 51°10.624 2°41.243 7.2 21 17.3 101220 45
2010-08-10 07:41:22 51°10.622 2°41.236 7.3 307 17.3 101220 45
2010-08-10 07:41:27 51°10.619 2°41.229 7 26 17.3 101220 46
2010-08-10 07:41:32 51°10.616 2°41.223 8.1 300 17.3 101220 46
2010-08-10 07:41:37 51°10.614 2°41.216 7.8 318 17.3 101220 45
2010-08-10 07:41:42 51°10.611 2°41.209 7.3 308 17.3 101220 45
2010-08-10 07:41:47 51°10.608 2°41.202 8.3 316 17.4 101220 46
2010-08-10 07:41:52 51°10.606 2°41.195 6.9 305 17.4 101220 46
2010-08-10 07:41:57 51°10.603 2°41.188 7.6 22 17.4 101220 45
2010-08-10 07:42:02 51°10.601 2°41.181 7.6 301 17.4 101220 45
2010-08-10 07:42:07 51°10.598 2°41.175 7.5 23 17.3 101220 46
2010-08-10 07:42:12 51°10.595 2°41.168 7.5 305 17.3 101220 46
2010-08-10 07:42:17 51°10.593 2°41.161 7.3 26 17.3 101220 46
2010-08-10 07:42:22 51°10.59 2°41.154 7.8 305 17.3 101220 46
2010-08-10 07:42:27 51°10.588 2°41.147 7.4 26 17.3 101230 45
2010-08-10 07:42:32 51°10.585 2°41.14 7.1 283 17.3 101230 45
2010-08-10 07:42:37 51°10.583 2°41.133 7.7 316 17.3 101230 45
2010-08-10 07:42:41 51°10.581 2°41.128 7.6 300 17.3 101230 45
2010-08-10 07:42:47 51°10.577 2°41.12 7.6 318 17.3 101220 45
2010-08-10 07:42:52 51°10.575 2°41.113 7.4 304 17.3 101220 45
2010-08-10 07:42:57 51°10.572 2°41.106 7.2 21 17.3 101230 45
2010-08-10 07:43:02 51°10.57 2°41.099 6.4 308 17.3 101230 45
2010-08-10 07:43:07 51°10.567 2°41.092 7 22 17.3 101230 46
2010-08-10 07:43:12 51°10.564 2°41.085 6.9 306 17.3 101230 46
2010-08-10 07:43:17 51°10.562 2°41.079 7.3 27 17.3 101230 45
2010-08-10 07:43:21 51°10.56 2°41.073 6.9 308 17.3 101230 45
2010-08-10 07:43:27 51°10.556 2°41.065 7 29 17.3 101230 45
2010-08-10 07:43:32 51°10.554 2°41.058 7.1 307 17.3 101230 45
2010-08-10 07:43:37 51°10.551 2°41.052 7.4 24 17.3 101230 45
2010-08-10 07:43:42 51°10.548 2°41.045 7.8 303 17.3 101230 45
2010-08-10 07:43:47 51°10.546 2°41.038 7.6 23 17.4 101230 45
2010-08-10 07:43:53 51°10.543 2°41.03 6.9 307 17.4 101230 45
2010-08-10 07:43:57 51°10.541 2°41.024 7.6 316 17.4 101230 46
2010-08-10 07:44:02 51°10.538 2°41.017 7.5 309 17.4 101230 46
2010-08-10 07:44:07 51°10.535 2°41.01 6.9 21 17.4 101230 45
2010-08-10 07:44:12 51°10.532 2°41.004 7.7 303 17.4 101230 45
2010-08-10 07:44:17 51°10.53 2°40.997 8.4 24 17.4 101230 44
2010-08-10 07:44:22 51°10.527 2°40.99 8.4 306 17.4 101230 44
2010-08-10 07:44:27 51°10.524 2°40.983 7.8 22 17.4 101230 46
2010-08-10 07:44:32 51°10.522 2°40.976 7.3 277 17.4 101230 46
2010-08-10 07:44:37 51°10.519 2°40.97 7.7 21 17.4 101230 46
2010-08-10 07:44:41 51°10.517 2°40.964 7.9 308 17.4 101230 46
2010-08-10 07:44:47 51°10.514 2°40.956 7.3 23 17.4 101220 46
2010-08-10 07:44:52 51°10.511 2°40.949 7.2 309 17.4 101220 46
2010-08-10 07:44:57 51°10.509 2°40.942 8.6 27 17.4 101230 45
2010-08-10 07:45:02 51°10.506 2°40.935 7.6 301 17.4 101230 45
2010-08-10 07:45:07 51°10.504 2°40.928 7.6 28 17.4 101230 47
2010-08-10 07:45:12 51°10.501 2°40.922 7.1 300 17.4 101230 47
2010-08-10 07:45:17 51°10.498 2°40.915 7.3 315 17.4 101230 45
2010-08-10 07:45:22 51°10.496 2°40.908 8 306 17.4 101230 45
2010-08-10 07:45:27 51°10.493 2°40.901 6.8 317 17.3 101230 46
2010-08-10 07:45:32 51°10.49 2°40.895 7.1 306 17.3 101230 46
2010-08-10 07:45:37 51°10.488 2°40.888 7.3 317 17.3 101230 46
2010-08-10 07:45:41 51°10.486 2°40.883 7.2 307 17.3 101230 46
2010-08-10 07:45:47 51°10.482 2°40.875 7.4 317 17.3 101230 46
2010-08-10 07:45:52 51°10.48 2°40.868 7.9 300 17.3 101230 46
2010-08-10 07:45:57 51°10.477 2°40.861 7.2 319 17.4 101230 45
2010-08-10 07:46:02 51°10.475 2°40.855 7.9 306 17.4 101230 45
2010-08-10 07:46:07 51°10.472 2°40.848 7.6 316 17.3 101230 45
2010-08-10 07:46:12 51°10.47 2°40.842 7.4 307 17.3 101230 45
2010-08-10 07:46:17 51°10.467 2°40.835 7 20 17.3 101230 45
2010-08-10 07:46:22 51°10.464 2°40.828 7.2 307 17.3 101230 45
2010-08-10 07:46:27 51°10.462 2°40.822 7.4 30 17.4 101220 45
2010-08-10 07:46:32 51°10.459 2°40.815 7 309 17.4 101220 45
2010-08-10 07:46:37 51°10.457 2°40.809 6.6 23 17.4 101230 46
2010-08-10 07:46:42 51°10.454 2°40.802 6.4 307 17.4 101230 46
2010-08-10 07:46:47 51°10.451 2°40.796 6.8 24 17.4 101220 46
2010-08-10 07:46:52 51°10.449 2°40.789 7.6 302 17.4 101220 46
2010-08-10 07:46:57 51°10.446 2°40.782 7.6 23 17.4 101230 45
2010-08-10 07:47:02 51°10.444 2°40.776 7.3 306 17.4 101230 45
2010-08-10 07:47:07 51°10.441 2°40.769 6.7 27 17.4 101220 45
2010-08-10 07:47:12 51°10.438 2°40.763 7.6 301 17.4 101220 45
2010-08-10 07:47:17 51°10.436 2°40.756 7.1 26 17.4 101220 46
2010-08-10 07:47:21 51°10.434 2°40.751 7.1 306 17.4 101220 46
2010-08-10 07:47:27 51°10.431 2°40.743 7.7 21 17.4 101220 45
2010-08-10 07:47:32 51°10.428 2°40.736 7.7 307 17.4 101220 45